Time;durP1;ratioP1;P1;durP2;ratioP2;P2;SDS_P1;SDS_P2;PMS_P1;PMS_P2;Temp;Humidity;BMP_temperature;BMP_pressure;BME280_temperature;BME280_humidity;BME280_pressure;Samples;Min_cycle;Max_cycle;Signal;HPM_P1;HPM_P2
2022/12/10 00:01:10;;;;;;;53.97;29.85;;;-1.80;99.90;;;;;;5075898;28;20113;-84
2022/12/10 00:03:36;;;;;;;52.33;29.17;;;-1.90;99.90;;;;;;5089209;28;20047;-85
2022/12/10 00:06:04;;;;;;;52.10;29.17;;;-1.80;99.90;;;;;;5062799;28;20032;-84
2022/12/10 00:08:30;;;;;;;56.45;30.15;;;-1.70;99.90;;;;;;5082315;28;20101;-85
2022/12/10 00:10:56;;;;;;;54.45;30.08;;;-1.90;99.90;;;;;;5095658;28;20120;-85
2022/12/10 00:13:22;;;;;;;60.25;31.50;;;-1.70;99.90;;;;;;5094122;28;20086;-85
2022/12/10 00:15:48;;;;;;;56.95;30.95;;;-1.80;99.90;;;;;;5086113;28;20043;-85
2022/12/10 00:18:14;;;;;;;62.58;31.77;;;-1.90;99.90;;;;;;5084047;28;20381;-85
2022/12/10 00:20:39;;;;;;;56.38;31.48;;;-1.90;99.90;;;;;;5088630;28;20040;-85
2022/12/10 00:23:05;;;;;;;56.50;30.60;;;-1.90;99.90;;;;;;5075515;28;20115;-85
2022/12/10 00:25:31;;;;;;;53.67;31.25;;;-1.90;99.90;;;;;;5088267;28;20123;-85
2022/12/10 00:27:58;;;;;;;56.85;32.08;;;-1.90;99.90;;;;;;5085572;28;20040;-85
2022/12/10 00:30:23;;;;;;;58.85;31.55;;;-1.90;99.90;;;;;;5056709;28;20069;-85
2022/12/10 00:32:49;;;;;;;60.80;31.98;;;-1.90;99.90;;;;;;5094573;28;20051;-84
2022/12/10 00:35:15;;;;;;;55.95;30.33;;;-1.80;99.90;;;;;;5098077;28;20044;-84
2022/12/10 00:37:40;;;;;;;64.78;32.60;;;-1.90;99.90;;;;;;5095189;28;20101;-84
2022/12/10 00:40:07;;;;;;;61.85;32.90;;;-1.90;99.90;;;;;;5090904;28;20043;-85
2022/12/10 00:42:33;;;;;;;58.00;31.70;;;-1.80;99.90;;;;;;5068780;28;20040;-85
2022/12/10 00:44:58;;;;;;;60.90;31.65;;;-1.80;99.90;;;;;;5078598;28;20364;-85
2022/12/10 00:47:24;;;;;;;65.18;32.88;;;-1.90;99.90;;;;;;5071778;28;20491;-85
2022/12/10 00:49:50;;;;;;;66.75;33.53;;;-1.80;99.90;;;;;;5084014;28;20079;-85
2022/12/10 00:52:15;;;;;;;67.63;34.25;;;-1.80;99.90;;;;;;5067443;28;20056;-85
2022/12/10 00:54:41;;;;;;;62.40;31.90;;;-0.90;99.90;;;;;;5085182;28;20036;-85
2022/12/10 00:57:07;;;;;;;63.47;33.65;;;-1.80;99.90;;;;;;5087851;28;20148;-85
2022/12/10 00:59:32;;;;;;;63.35;33.15;;;-1.70;99.90;;;;;;5086961;28;20049;-85
2022/12/10 01:01:58;;;;;;;63.38;33.92;;;-1.70;99.90;;;;;;5082848;28;20369;-84
2022/12/10 01:04:24;;;;;;;61.22;31.35;;;-1.70;99.90;;;;;;5082360;28;20044;-85
2022/12/10 01:06:52;;;;;;;63.85;33.65;;;-1.60;99.90;;;;;;5099082;28;20044;-84
2022/12/10 01:09:25;;;;;;;63.63;33.38;;;-1.50;99.90;;;;;;5099217;28;20048;-86
2022/12/10 01:11:52;;;;;;;65.90;33.97;;;-1.20;99.90;;;;;;5067355;28;20047;-85
2022/12/10 01:14:21;;;;;;;66.25;33.95;;;-0.60;99.90;;;;;;5089508;28;20127;-85
2022/12/10 01:16:48;;;;;;;68.20;32.63;;;-1.40;99.90;;;;;;5071841;28;20051;-85
2022/12/10 01:19:14;;;;;;;71.47;34.30;;;-1.30;99.90;;;;;;5088609;28;20044;-85
2022/12/10 01:21:40;;;;;;;67.00;34.75;;;-1.30;99.90;;;;;;5073546;28;20042;-85
2022/12/10 01:24:06;;;;;;;64.47;34.08;;;-1.30;99.90;;;;;;5091180;28;20047;-85
2022/12/10 01:26:33;;;;;;;67.57;34.78;;;-1.00;99.90;;;;;;5093080;28;20051;-85
2022/12/10 01:28:59;;;;;;;66.47;35.10;;;-0.80;99.90;;;;;;5085818;28;20036;-84
2022/12/10 01:31:32;;;;;;;68.00;34.72;;;-1.10;99.90;;;;;;5061058;28;20047;-84
2022/12/10 01:33:58;;;;;;;68.18;34.30;;;-1.00;99.90;;;;;;5066448;28;20070;-84
2022/12/10 01:36:31;;;;;;;67.38;34.70;;;-1.10;99.90;;;;;;5094109;28;20048;-84
2022/12/10 01:38:59;;;;;;;69.53;35.85;;;-1.00;99.90;;;;;;5081526;28;20048;-84
2022/12/10 01:41:34;;;;;;;69.57;35.38;;;-1.00;99.90;;;;;;5097914;28;20044;-85
2022/12/10 01:44:04;;;;;;;67.68;34.35;;;-1.00;99.90;;;;;;5098442;28;20032;-84
2022/12/10 01:46:32;;;;;;;68.05;35.78;;;-0.90;99.90;;;;;;5069036;28;20044;-84
2022/12/10 01:48:58;;;;;;;;;;;-0.90;99.90;;;;;;5086056;28;20489;-84
2022/12/10 01:51:29;;;;;;;74.68;36.53;;;-0.90;99.90;;;;;;5089612;28;19963;-82
2022/12/10 01:53:55;;;;;;;70.07;35.80;;;-0.90;99.90;;;;;;5085124;28;20044;-82
2022/12/10 01:56:21;;;;;;;69.72;36.30;;;-0.80;99.90;;;;;;5091120;28;20400;-82
2022/12/10 01:58:50;;;;;;;72.05;36.55;;;-0.80;99.90;;;;;;5092684;28;20106;-82
2022/12/10 02:01:32;;;;;;;68.85;36.38;;;-0.80;99.90;;;;;;5058399;28;20097;-82
2022/12/10 02:04:31;;;;;;;68.20;35.20;;;-0.80;99.90;;;;;;5072278;28;20054;-83
2022/12/10 02:06:57;;;;;;;70.75;35.72;;;-0.80;99.90;;;;;;5054632;28;20161;-82
2022/12/10 02:09:30;;;;;;;68.25;35.58;;;-0.70;99.90;;;;;;5086464;28;20083;-83
2022/12/10 02:11:55;;;;;;;69.05;36.72;;;-0.80;99.90;;;;;;5070297;28;20105;-83
2022/12/10 02:14:47;;;;;;;60.60;35.03;;;-0.80;99.90;;;;;;5057071;28;20439;-84
2022/12/10 02:17:36;;;;;;;72.75;37.45;;;-0.70;99.90;;;;;;5051493;28;20074;-84
2022/12/10 02:20:07;;;;;;;68.32;35.75;;;-0.80;99.90;;;;;;5097785;28;20047;-84
2022/12/10 02:22:47;;;;;;;64.80;35.15;;;-0.70;99.90;;;;;;5105965;28;20028;-84
2022/12/10 02:25:16;;;;;;;70.05;34.40;;;-0.80;99.90;;;;;;5090570;28;20036;-84
2022/12/10 02:27:57;;;;;;;64.95;35.85;;;-0.80;99.90;;;;;;5090627;28;20076;-84
2022/12/10 02:30:23;;;;;;;62.53;34.97;;;-0.80;99.90;;;;;;5107602;28;20047;-83
2022/12/10 02:32:50;;;;;;;66.40;35.20;;;-0.90;99.90;;;;;;5104232;28;20044;-83
2022/12/10 02:35:21;;;;;;;68.43;34.20;;;-1.00;99.90;;;;;;5113204;28;20032;-83
2022/12/10 02:37:54;;;;;;;65.65;34.50;;;-1.00;99.90;;;;;;5054491;28;20064;-83
2022/12/10 02:40:25;;;;;;;65.05;35.80;;;-1.10;99.90;;;;;;5076648;28;20066;-83
2022/12/10 02:42:51;;;;;;;70.97;36.35;;;-1.10;99.90;;;;;;5090823;28;20029;-83
2022/12/10 02:45:19;;;;;;;70.90;35.58;;;-1.10;99.90;;;;;;5096792;28;20075;-83
2022/12/10 02:47:46;;;;;;;68.18;37.40;;;-1.20;99.90;;;;;;5073269;28;20093;-83
2022/12/10 02:50:15;;;;;;;71.45;32.42;;;-1.20;99.90;;;;;;5093008;28;20032;-83
2022/12/10 02:52:41;;;;;;;67.20;35.63;;;-1.20;99.90;;;;;;5095160;28;20084;-83
2022/12/10 02:55:13;;;;;;;68.55;34.33;;;-1.30;99.90;;;;;;5063293;28;20071;-83
2022/12/10 02:58:37;;;;;;;69.25;35.05;;;-1.20;99.90;;;;;;5093481;28;20477;-83
2022/12/10 03:01:10;;;;;;;69.15;34.70;;;-1.20;99.90;;;;;;4969886;28;21375;-83
2022/12/10 03:03:48;;;;;;;72.95;34.80;;;-1.30;99.90;;;;;;4969630;28;20047;-83
2022/12/10 03:06:38;;;;;;;66.78;35.58;;;-1.30;99.90;;;;;;4969188;28;20483;-83
2022/12/10 03:09:12;;;;;;;72.50;35.35;;;-1.30;99.90;;;;;;4958568;28;20073;-83
2022/12/10 03:11:41;;;;;;;72.75;35.28;;;-1.30;99.90;;;;;;4974029;28;20054;-83
2022/12/10 03:14:21;;;;;;;71.95;37.22;;;-1.30;99.90;;;;;;4972634;28;20374;-83
2022/12/10 03:16:55;;;;;;;70.80;35.78;;;-1.40;99.90;;;;;;4950041;28;20621;-81
2022/12/10 03:19:28;;;;;;;70.07;34.80;;;-1.50;99.90;;;;;;4967746;28;20073;-80
2022/12/10 03:21:54;;;;;;;74.80;36.25;;;-1.50;99.90;;;;;;4968318;28;20043;-81
2022/12/10 03:24:22;;;;;;;74.40;36.85;;;-1.50;99.90;;;;;;4953848;28;20051;-81
2022/12/10 03:26:49;;;;;;;78.32;36.50;;;-1.50;99.90;;;;;;4971772;28;20072;-80
2022/12/10 03:29:20;;;;;;;77.68;37.35;;;-1.50;99.90;;;;;;4967495;28;20035;-80
2022/12/10 03:31:47;;;;;;;73.32;37.15;;;-1.50;99.90;;;;;;5024884;28;20052;-80
2022/12/10 03:34:13;;;;;;;73.22;35.40;;;-1.50;99.90;;;;;;5083963;28;20040;-80
2022/12/10 03:36:40;;;;;;;76.22;37.42;;;-1.50;99.90;;;;;;5101394;28;20042;-80
2022/12/10 03:39:07;;;;;;;77.10;37.97;;;-1.50;99.90;;;;;;5108254;28;20024;-80
2022/12/10 03:41:35;;;;;;;69.45;36.63;;;-1.60;99.90;;;;;;5098936;28;20083;-81
2022/12/10 03:44:01;;;;;;;71.60;35.53;;;-1.60;99.90;;;;;;5103485;28;20032;-81
2022/12/10 03:46:29;;;;;;;75.47;37.95;;;-1.60;99.90;;;;;;5098689;28;20043;-80
2022/12/10 03:48:56;;;;;;;;;;;-1.60;99.90;;;;;;5072170;28;20398;-80
2022/12/10 03:51:21;;;;;;;69.15;35.20;;;-1.70;99.90;;;;;;5093538;28;19976;-81
2022/12/10 03:53:50;;;;;;;69.18;35.90;;;-1.70;99.90;;;;;;5079906;28;20044;-83
2022/12/10 03:56:17;;;;;;;78.13;37.03;;;-1.70;99.90;;;;;;5095140;28;20115;-83
2022/12/10 03:58:43;;;;;;;74.93;36.05;;;-1.70;99.90;;;;;;5090752;28;20055;-83
2022/12/10 04:01:09;;;;;;;69.90;36.78;;;-1.70;99.90;;;;;;5090264;28;20048;-82
2022/12/10 04:03:36;;;;;;;75.28;36.95;;;-1.70;99.90;;;;;;5092530;28;20065;-82
2022/12/10 04:06:07;;;;;;;73.60;36.83;;;-1.70;99.90;;;;;;5096716;28;20043;-83
2022/12/10 04:08:36;;;;;;;65.88;35.88;;;-1.70;99.90;;;;;;5095757;28;20036;-83
2022/12/10 04:11:07;;;;;;;68.90;35.65;;;-1.80;99.90;;;;;;5058085;28;20394;-83
2022/12/10 04:16:27;;;;;;;73.15;36.97;;;-1.80;99.90;;;;;;5092043;28;20126;-83
2022/12/10 04:18:54;;;;;;;72.68;35.30;;;-1.80;99.90;;;;;;5072015;28;20048;-83
2022/12/10 04:26:52;;;;;;;68.57;34.38;;;-1.90;99.90;;;;;;5093779;28;20044;-83
2022/12/10 04:29:20;;;;;;;78.47;36.53;;;-1.90;99.90;;;;;;5109915;28;20209;-83
2022/12/10 04:31:46;;;;;;;78.05;36.10;;;-2.00;99.90;;;;;;5107178;28;20037;-83
2022/12/10 04:34:12;;;;;;;79.85;37.10;;;-1.90;99.90;;;;;;5083506;28;20097;-84
2022/12/10 04:36:37;;;;;;;77.60;38.08;;;-1.90;99.90;;;;;;5082880;28;20036;-84
2022/12/10 04:39:03;;;;;;;75.18;36.20;;;-1.90;99.90;;;;;;5099328;28;20055;-84
2022/12/10 04:41:29;;;;;;;82.43;38.78;;;-1.70;99.90;;;;;;5098288;28;20099;-83
2022/12/10 04:43:55;;;;;;;75.22;37.17;;;-1.90;99.90;;;;;;5095829;28;20063;-82
2022/12/10 04:46:21;;;;;;;81.07;37.90;;;-1.90;99.90;;;;;;5098210;28;20043;-82
2022/12/10 04:48:46;;;;;;;75.68;36.70;;;-2.10;99.90;;;;;;5096545;28;20519;-82
2022/12/10 04:51:12;;;;;;;80.47;38.63;;;-2.00;99.90;;;;;;5096224;28;20075;-82
2022/12/10 04:53:38;;;;;;;77.10;36.85;;;-2.00;99.90;;;;;;5065610;28;20078;-83
2022/12/10 04:56:04;;;;;;;74.80;36.03;;;-2.00;99.90;;;;;;5103635;28;20517;-83
2022/12/10 04:58:31;;;;;;;74.55;36.30;;;-2.10;99.90;;;;;;5089571;28;20635;-82
2022/12/10 05:01:08;;;;;;;74.78;36.65;;;-2.10;99.90;;;;;;5087362;28;20097;-82
2022/12/10 05:03:34;;;;;;;71.78;34.50;;;-2.20;99.90;;;;;;5089367;28;20072;-82
2022/12/10 05:06:01;;;;;;;79.45;36.53;;;;;;;;;;5090046;28;20481;-82
2022/12/10 05:08:28;;;;;;;72.88;35.65;;;-2.20;99.90;;;;;;5076896;28;20055;-82
2022/12/10 05:10:54;;;;;;;77.55;36.88;;;-2.30;99.90;;;;;;5087685;28;20128;-82
2022/12/10 05:13:19;;;;;;;69.10;36.33;;;-2.30;99.90;;;;;;5093121;28;20060;-82
2022/12/10 05:15:45;;;;;;;70.40;33.88;;;-2.30;99.90;;;;;;5094084;28;20067;-81
2022/12/10 05:18:10;;;;;;;71.90;34.40;;;-2.30;99.90;;;;;;5095513;28;20040;-82
2022/12/10 05:20:36;;;;;;;73.78;36.38;;;-2.40;99.90;;;;;;5096767;28;20062;-82
2022/12/10 05:25:52;;;;;;;71.50;36.45;;;-2.40;99.90;;;;;;5095857;28;20040;-84
2022/12/10 05:28:25;;;;;;;78.78;36.67;;;-2.40;99.90;;;;;;5091245;28;20043;-84
2022/12/10 05:30:50;;;;;;;82.75;39.22;;;-2.40;99.90;;;;;;5096310;28;20036;-84
2022/12/10 05:33:16;;;;;;;80.38;37.20;;;-2.40;99.90;;;;;;5097571;28;20047;-84
2022/12/10 05:35:42;;;;;;;81.15;36.97;;;-2.40;99.90;;;;;;5098047;28;20489;-86
2022/12/10 05:38:08;;;;;;;79.85;37.05;;;-2.40;99.90;;;;;;5089677;28;20119;-86
2022/12/10 05:40:37;;;;;;;87.15;40.33;;;-2.40;99.90;;;;;;5067610;28;20036;-85
2022/12/10 05:43:03;;;;;;;89.60;39.67;;;-2.40;99.90;;;;;;5103081;28;20032;-86
2022/12/10 05:45:28;;;;;;;83.30;37.88;;;-2.40;99.90;;;;;;5092051;28;20036;-86
2022/12/10 05:47:54;;;;;;;93.05;39.60;;;-2.40;99.90;;;;;;5085667;28;20062;-86
2022/12/10 05:50:20;;;;;;;82.13;39.63;;;-2.40;99.90;;;;;;5073133;28;20505;-85
2022/12/10 05:52:45;;;;;;;81.45;38.60;;;-2.40;99.90;;;;;;5073289;28;20126;-85
2022/12/10 05:55:11;;;;;;;78.95;37.58;;;-2.50;99.90;;;;;;5091793;28;20401;-85
2022/12/10 05:57:37;;;;;;;85.25;38.58;;;-2.50;99.90;;;;;;5087916;28;20450;-85
2022/12/10 06:00:05;;;;;;;92.18;41.08;;;-2.50;99.90;;;;;;5086692;28;20512;-85
2022/12/10 06:02:33;;;;;;;90.22;39.58;;;-2.50;99.90;;;;;;5087775;28;20047;-83
2022/12/10 06:04:59;;;;;;;83.60;39.00;;;-2.50;99.90;;;;;;5074891;28;20066;-83
2022/12/10 06:07:31;;;;;;;84.63;39.22;;;-2.60;99.90;;;;;;5091273;28;20028;-84
2022/12/10 06:09:56;;;;;;;80.22;38.80;;;-2.50;99.90;;;;;;5092921;28;20072;-84
2022/12/10 06:12:22;;;;;;;87.72;39.42;;;;;;;;;;5074168;28;20071;-84
2022/12/10 06:14:48;;;;;;;89.75;41.42;;;-2.60;99.90;;;;;;5095338;28;20266;-83
2022/12/10 06:17:14;;;;;;;79.90;39.00;;;-2.60;99.90;;;;;;5091377;28;20040;-83
2022/12/10 06:19:39;;;;;;;80.63;39.10;;;-2.60;99.90;;;;;;5071045;28;20075;-84
2022/12/10 06:22:05;;;;;;;83.30;38.35;;;-2.60;99.90;;;;;;5090653;28;20036;-83
2022/12/10 06:24:31;;;;;;;88.18;38.20;;;-2.60;99.90;;;;;;5084690;28;20036;-83
2022/12/10 06:26:56;;;;;;;91.47;39.88;;;-2.60;99.90;;;;;;5091434;28;20036;-85
2022/12/10 06:29:25;;;;;;;87.90;38.60;;;-2.60;99.90;;;;;;5088508;28;20040;-84
2022/12/10 06:31:51;;;;;;;82.57;39.30;;;-2.60;99.90;;;;;;5092059;28;20043;-84
2022/12/10 06:34:16;;;;;;;93.28;41.33;;;-2.60;99.90;;;;;;5071997;28;20036;-84
2022/12/10 06:36:42;;;;;;;94.57;40.60;;;-2.50;99.90;;;;;;5094749;28;20040;-84
2022/12/10 06:39:10;;;;;;;87.70;40.95;;;-2.50;99.90;;;;;;5057585;28;20083;-84
2022/12/10 06:41:36;;;;;;;87.50;40.05;;;-2.50;99.90;;;;;;5090291;28;20511;-85
2022/12/10 06:44:02;;;;;;;87.00;40.88;;;-2.50;99.90;;;;;;5071036;28;20416;-85
2022/12/10 06:46:28;;;;;;;93.68;41.17;;;-2.50;99.90;;;;;;5090374;28;20036;-84
2022/12/10 06:48:54;;;;;;;95.55;40.35;;;-2.40;99.90;;;;;;5097839;28;20043;-83
2022/12/10 06:51:19;;;;;;;83.55;38.53;;;-2.40;99.90;;;;;;5076473;28;20036;-82
2022/12/10 06:53:45;;;;;;;91.47;39.97;;;-2.40;99.90;;;;;;5080131;28;20046;-83
2022/12/10 06:56:17;;;;;;;88.38;39.78;;;-2.50;99.90;;;;;;5074761;28;20048;-83
2022/12/10 06:58:43;;;;;;;91.47;40.30;;;-2.40;99.90;;;;;;5112067;28;20105;-83
2022/12/10 07:01:12;;;;;;;88.53;41.10;;;-2.50;99.90;;;;;;5107155;28;20052;-84
2022/12/10 07:03:38;;;;;;;97.95;43.92;;;-2.50;99.90;;;;;;5096141;28;20158;-83
2022/12/10 07:06:06;;;;;;;97.20;40.92;;;-2.40;99.90;;;;;;5063884;28;20044;-84
2022/12/10 07:08:31;;;;;;;91.72;40.55;;;-2.30;99.90;;;;;;5091693;28;20455;-83
2022/12/10 07:10:57;;;;;;;88.68;41.17;;;-2.30;99.90;;;;;;5092764;28;20031;-83
2022/12/10 07:13:24;;;;;;;90.32;40.30;;;-2.20;99.90;;;;;;5090559;28;20297;-83
2022/12/10 07:15:49;;;;;;;96.15;42.15;;;-2.30;99.90;;;;;;5093377;28;20511;-83
2022/12/10 07:18:15;;;;;;;89.50;40.63;;;-2.30;99.90;;;;;;5092283;28;20032;-82
2022/12/10 07:20:41;;;;;;;96.38;43.53;;;-2.30;99.90;;;;;;5055920;28;20044;-83
2022/12/10 07:23:06;;;;;;;89.32;40.83;;;-2.20;99.90;;;;;;5093647;28;20043;-83
2022/12/10 07:25:36;;;;;;;90.60;39.85;;;-2.20;99.90;;;;;;5081188;28;20061;-83
2022/12/10 07:28:01;;;;;;;96.63;41.35;;;-2.20;99.90;;;;;;5101180;28;20198;-84
2022/12/10 07:30:27;;;;;;;90.93;41.15;;;-2.20;99.90;;;;;;5094998;28;20072;-83
2022/12/10 07:32:53;;;;;;;85.00;39.30;;;-2.20;99.90;;;;;;5100016;28;20040;-83
2022/12/10 07:35:18;;;;;;;91.60;41.65;;;-2.20;99.90;;;;;;5069005;28;20051;-83
2022/12/10 07:37:44;;;;;;;93.72;42.40;;;-2.20;99.90;;;;;;5086945;28;20048;-84
2022/12/10 07:40:10;;;;;;;96.55;42.78;;;-2.10;99.90;;;;;;5078397;28;20048;-84
2022/12/10 07:42:36;;;;;;;98.40;43.97;;;-2.10;99.90;;;;;;5095312;28;20126;-83
2022/12/10 07:45:03;;;;;;;89.72;40.85;;;-2.10;99.90;;;;;;5094667;28;20063;-83
2022/12/10 07:47:29;;;;;;;97.22;41.05;;;-2.00;99.90;;;;;;5092188;28;20504;-83
2022/12/10 07:49:54;;;;;;;93.13;42.50;;;-2.00;99.90;;;;;;5059814;28;20039;-83
2022/12/10 07:52:20;;;;;;;96.93;43.67;;;-2.00;99.90;;;;;;5077273;28;20048;-83
2022/12/10 07:54:46;;;;;;;97.45;42.33;;;-1.90;99.90;;;;;;5084802;28;20036;-85
2022/12/10 07:57:11;;;;;;;86.68;40.50;;;-1.80;99.90;;;;;;5075001;28;20074;-85
2022/12/10 07:59:37;;;;;;;87.43;40.90;;;-1.80;99.90;;;;;;5094432;28;20036;-84
2022/12/10 08:02:03;;;;;;;91.85;42.83;;;-1.80;99.90;;;;;;5089839;28;20500;-85
2022/12/10 08:04:29;;;;;;;90.50;40.53;;;-1.80;99.90;;;;;;5070574;28;20048;-85
2022/12/10 08:06:57;;;;;;;88.15;39.80;;;-1.80;99.90;;;;;;5084402;28;20437;-84
2022/12/10 08:09:22;;;;;;;89.17;41.43;;;-1.80;99.90;;;;;;5091551;28;20058;-83
2022/12/10 08:11:48;;;;;;;89.32;40.50;;;-1.80;99.90;;;;;;5098618;28;20685;-83
2022/12/10 08:14:14;;;;;;;82.75;39.90;;;;;;;;;;5090700;28;20028;-83
2022/12/10 08:16:40;;;;;;;90.72;41.85;;;-1.70;99.90;;;;;;5104100;28;20204;-83
2022/12/10 08:19:05;;;;;;;91.80;42.17;;;-1.70;99.90;;;;;;5090504;28;20028;-84
2022/12/10 08:21:32;;;;;;;90.30;41.00;;;-1.50;99.90;;;;;;5091221;28;20040;-83
2022/12/10 08:24:00;;;;;;;94.50;40.85;;;-1.60;99.90;;;;;;5093342;28;20052;-84
2022/12/10 08:26:28;;;;;;;90.60;41.88;;;-1.50;99.90;;;;;;5090099;28;20036;-82
2022/12/10 08:28:55;;;;;;;90.15;40.05;;;-1.50;99.90;;;;;;5088525;28;20059;-80
2022/12/10 08:31:22;;;;;;;85.88;41.42;;;-1.50;99.90;;;;;;5093657;28;20047;-82
2022/12/10 08:33:48;;;;;;;85.05;41.13;;;-1.40;99.90;;;;;;5097538;28;20041;-81
2022/12/10 08:36:16;;;;;;;87.38;42.22;;;-1.40;99.90;;;;;;5075418;28;20040;-77
2022/12/10 08:38:42;;;;;;;88.28;43.05;;;-1.30;99.90;;;;;;5092473;28;20032;-82
2022/12/10 08:41:09;;;;;;;82.75;41.22;;;;;;;;;;5093271;28;20114;-82
2022/12/10 08:43:36;;;;;;;87.28;41.90;;;-1.20;99.90;;;;;;5094138;28;20433;-82
2022/12/10 08:46:02;;;;;;;83.22;40.20;;;-1.20;99.90;;;;;;5066871;28;20044;-80
2022/12/10 08:48:28;;;;;;;82.90;40.30;;;-1.10;99.90;;;;;;5093120;28;20044;-79
2022/12/10 08:50:54;;;;;;;81.32;40.10;;;-1.10;99.90;;;;;;5089588;28;20036;-80
2022/12/10 08:53:19;;;;;;;88.22;42.30;;;-1.10;99.90;;;;;;5075750;28;20512;-79
2022/12/10 08:55:45;;;;;;;86.40;40.97;;;-1.10;99.90;;;;;;5089097;28;20043;-81
2022/12/10 08:58:12;;;;;;;81.13;40.90;;;-1.00;99.90;;;;;;5093306;28;20109;-80
2022/12/10 09:00:38;;;;;;;85.03;40.65;;;-1.00;99.90;;;;;;5089785;28;20130;-79
2022/12/10 09:03:04;;;;;;;75.22;39.22;;;-1.00;99.90;;;;;;5070562;28;20119;-78
2022/12/10 09:05:30;;;;;;;80.85;39.47;;;-1.00;99.90;;;;;;5091491;28;20079;-79
2022/12/10 09:07:56;;;;;;;85.68;40.15;;;;;;;;;;5076855;28;20092;-79
2022/12/10 09:10:22;;;;;;;78.22;40.55;;;-0.90;99.90;;;;;;5093811;28;20094;-79
2022/12/10 09:12:48;;;;;;;80.82;41.42;;;-0.90;99.90;;;;;;5072713;28;20163;-79
2022/12/10 09:15:14;;;;;;;80.65;40.50;;;;;;;;;;5097987;28;20047;-79
2022/12/10 09:17:40;;;;;;;81.35;41.20;;;-0.80;99.90;;;;;;5095350;28;20044;-79
2022/12/10 09:20:06;;;;;;;82.68;43.67;;;-0.80;99.90;;;;;;5075628;28;20413;-82
2022/12/10 09:22:32;;;;;;;80.95;40.83;;;-0.70;99.90;;;;;;5091053;28;20036;-82
2022/12/10 09:24:58;;;;;;;80.40;40.63;;;-0.70;99.90;;;;;;5095307;28;20458;-82
2022/12/10 09:27:23;;;;;;;81.75;40.03;;;-0.70;99.90;;;;;;5101725;28;20040;-80
2022/12/10 09:29:49;;;;;;;79.50;40.42;;;-0.60;99.90;;;;;;5110793;28;20147;-80
2022/12/10 09:32:15;;;;;;;77.55;41.17;;;-0.50;99.90;;;;;;5107548;28;20044;-80
2022/12/10 09:34:40;;;;;;;75.70;40.05;;;-0.50;99.90;;;;;;5103643;28;20036;-80
2022/12/10 09:37:06;;;;;;;78.72;39.00;;;-0.40;99.90;;;;;;5099230;28;20132;-80
2022/12/10 09:39:32;;;;;;;80.15;39.53;;;-0.30;99.90;;;;;;5101792;28;20043;-80
2022/12/10 09:42:23;;;;;;;70.10;38.58;;;-0.30;99.90;;;;;;5080068;28;20047;-80
2022/12/10 09:44:49;;;;;;;77.72;40.63;;;;;;;;;;5096334;28;20040;-80
2022/12/10 09:47:15;;;;;;;76.55;40.88;;;-0.20;99.90;;;;;;5078778;28;20045;-80
2022/12/10 09:50:00;;;;;;;80.28;40.10;;;;;;;;;;5092058;28;20047;-80
2022/12/10 09:52:29;;;;;;;75.90;40.45;;;-0.30;99.90;;;;;;5096306;28;20043;-80
2022/12/10 09:55:03;;;;;;;77.13;40.55;;;-0.20;99.90;;;;;;5076276;28;20043;-80
2022/12/10 09:57:35;;;;;;;80.22;40.58;;;-0.10;99.90;;;;;;5096192;28;20044;-80
2022/12/10 10:00:17;;;;;;;83.57;43.55;;;0.00;99.90;;;;;;5096685;28;20051;-80
2022/12/10 10:02:43;;;;;;;82.90;41.22;;;0.10;99.90;;;;;;5093744;28;20068;-79
2022/12/10 10:05:09;;;;;;;87.20;43.35;;;;;;;;;;5093317;28;20496;-79
2022/12/10 10:08:01;;;;;;;82.40;43.47;;;0.20;99.90;;;;;;5096044;28;20037;-79
2022/12/10 10:10:30;;;;;;;82.65;42.10;;;0.30;99.90;;;;;;5084302;28;20586;-79
2022/12/10 10:13:17;;;;;;;81.97;42.55;;;0.30;99.90;;;;;;5094623;28;20037;-79
2022/12/10 10:15:44;;;;;;;82.00;43.53;;;0.30;99.90;;;;;;5087819;28;20044;-79
2022/12/10 10:18:40;;;;;;;73.97;41.67;;;0.20;99.90;;;;;;5091158;28;20048;-79
2022/12/10 10:21:17;;;;;;;74.03;41.42;;;0.30;99.90;;;;;;5096582;28;20310;-80
2022/12/10 10:23:45;;;;;;;83.53;42.67;;;0.20;99.90;;;;;;5091305;28;20043;-79
2022/12/10 10:26:11;;;;;;;78.78;42.65;;;0.30;99.90;;;;;;5094797;28;20044;-80
2022/12/10 10:28:39;;;;;;;76.03;41.88;;;0.30;99.90;;;;;;5077790;28;20036;-77
2022/12/10 10:31:05;;;;;;;;;;;;;;;;;;5088813;28;20032;-80
2022/12/10 10:33:30;;;;;;;69.80;38.45;;;0.30;99.90;;;;;;5097482;28;19935;-80
2022/12/10 10:35:58;;;;;;;76.63;40.67;;;0.30;99.90;;;;;;5091583;28;20050;-80
2022/12/10 10:38:27;;;;;;;73.00;41.33;;;0.40;99.90;;;;;;5073969;28;20044;-80
2022/12/10 10:40:56;;;;;;;80.13;41.47;;;0.30;99.90;;;;;;5071921;28;20047;-80
2022/12/10 10:43:30;;;;;;;74.75;41.55;;;0.30;99.90;;;;;;5090827;28;20039;-80
2022/12/10 10:46:09;;;;;;;76.25;41.65;;;0.40;99.90;;;;;;5088643;28;20072;-80
2022/12/10 10:48:35;;;;;;;75.28;40.50;;;0.30;99.90;;;;;;5074424;28;20051;-80
2022/12/10 10:51:22;;;;;;;79.30;42.80;;;0.30;99.90;;;;;;5056205;28;20040;-80
2022/12/10 10:53:51;;;;;;;77.43;42.42;;;0.30;99.90;;;;;;5073179;28;20054;-80
2022/12/10 10:56:29;;;;;;;74.40;40.88;;;0.40;99.90;;;;;;5068448;28;20044;-80
2022/12/10 10:59:00;;;;;;;76.20;40.67;;;0.30;99.90;;;;;;5086296;28;20044;-80
2022/12/10 11:01:43;;;;;;;80.25;41.58;;;0.30;99.90;;;;;;5089423;28;20441;-79
2022/12/10 11:04:09;;;;;;;74.15;39.45;;;0.40;99.90;;;;;;5086320;28;20494;-79
2022/12/10 11:06:35;;;;;;;73.78;39.30;;;0.30;99.90;;;;;;5088740;28;20048;-79
2022/12/10 11:09:01;;;;;;;73.22;38.83;;;0.30;99.90;;;;;;5090164;28;20051;-79
2022/12/10 11:11:49;;;;;;;75.93;40.92;;;0.30;99.90;;;;;;5073330;28;20059;-79
2022/12/10 11:14:30;;;;;;;75.07;39.78;;;0.30;99.90;;;;;;5079770;28;20040;-80
2022/12/10 11:17:20;;;;;;;79.13;40.60;;;0.30;99.90;;;;;;5064302;28;20057;-79
2022/12/10 11:20:02;;;;;;;75.65;40.33;;;0.20;99.90;;;;;;5069982;28;20044;-79
2022/12/10 11:22:31;;;;;;;74.57;40.10;;;0.20;99.90;;;;;;5067468;28;20076;-79
2022/12/10 11:24:58;;;;;;;78.35;40.22;;;0.30;99.90;;;;;;5068622;28;20078;-80
2022/12/10 11:27:40;;;;;;;77.90;39.42;;;0.30;99.90;;;;;;5086496;28;20090;-80
2022/12/10 11:30:19;;;;;;;83.15;41.13;;;0.30;99.90;;;;;;5089919;28;20155;-80
2022/12/10 11:32:57;;;;;;;77.97;39.30;;;0.40;99.90;;;;;;5083748;28;20105;-79
2022/12/10 11:36:06;;;;;;;73.90;39.72;;;0.40;99.90;;;;;;5082204;28;20101;-79
2022/12/10 11:38:37;;;;;;;79.63;40.55;;;0.40;99.90;;;;;;5081260;28;20048;-79
2022/12/10 11:41:24;;;;;;;77.40;41.10;;;0.50;99.90;;;;;;5084235;28;20040;-79
2022/12/10 11:43:55;;;;;;;80.35;40.65;;;0.40;99.90;;;;;;5083261;28;20379;-78
2022/12/10 11:46:39;;;;;;;77.10;41.90;;;0.30;99.90;;;;;;5084483;28;20044;-79
2022/12/10 11:49:19;;;;;;;78.30;40.47;;;0.20;99.90;;;;;;5085900;28;20036;-80
2022/12/10 11:52:16;;;;;;;74.07;38.60;;;0.30;99.90;;;;;;5088838;28;20048;-80
2022/12/10 11:55:10;;;;;;;78.72;40.38;;;0.20;99.90;;;;;;5089864;28;20501;-80
2022/12/10 11:57:51;;;;;;;71.85;38.25;;;0.20;99.90;;;;;;5034078;28;20052;-79
2022/12/10 12:00:23;;;;;;;74.60;38.72;;;0.10;99.90;;;;;;5087249;28;20144;-78
2022/12/10 12:03:36;;;;;;;76.78;39.67;;;0.10;99.90;;;;;;5088113;28;20036;-79
2022/12/10 12:06:43;;;;;;;73.57;37.65;;;0.00;99.90;;;;;;5077180;28;20052;-80
2022/12/10 12:09:17;;;;;;;68.25;35.30;;;0.00;99.90;;;;;;5009241;28;20058;-80
2022/12/10 12:11:54;;;;;;;61.60;32.95;;;0.10;99.90;;;;;;5011282;28;20046;-79
2022/12/10 12:14:24;;;;;;;61.30;32.45;;;0.00;99.90;;;;;;5013480;28;20478;-79
2022/12/10 12:17:11;;;;;;;64.38;34.53;;;0.00;99.90;;;;;;5007946;28;20045;-79
2022/12/10 12:19:44;;;;;;;64.85;33.28;;;0.00;99.90;;;;;;4978843;28;20054;-79
2022/12/10 12:22:31;;;;;;;65.85;34.05;;;0.00;99.90;;;;;;5000287;28;20050;-80
2022/12/10 12:25:27;;;;;;;70.38;36.35;;;0.00;99.90;;;;;;5017543;28;20049;-79
2022/12/10 12:28:10;;;;;;;70.38;36.17;;;0.00;99.90;;;;;;5007942;28;20046;-79
2022/12/10 12:30:37;;;;;;;75.25;36.35;;;0.00;99.90;;;;;;5014875;28;20084;-78
2022/12/10 12:33:11;;;;;;;69.32;35.95;;;0.00;99.90;;;;;;5014525;28;20046;-79
2022/12/10 12:35:46;;;;;;;72.80;37.00;;;0.00;99.90;;;;;;5001205;28;20050;-79
2022/12/10 12:38:27;;;;;;;76.35;37.00;;;0.00;99.90;;;;;;4982301;28;20054;-80
2022/12/10 12:41:15;;;;;;;75.93;37.33;;;0.00;99.90;;;;;;5005929;28;20050;-79
2022/12/10 12:43:58;;;;;;;79.15;37.38;;;0.00;99.90;;;;;;5004092;28;20442;-78
2022/12/10 12:46:39;;;;;;;77.18;36.33;;;0.00;99.90;;;;;;5063009;28;20048;-79
2022/12/10 12:49:25;;;;;;;84.53;38.50;;;-0.10;99.90;;;;;;5080379;28;20366;-79
2022/12/10 12:52:12;;;;;;;86.43;38.97;;;-0.10;99.90;;;;;;5092603;28;20428;-77
2022/12/10 12:54:40;;;;;;;84.25;39.20;;;-0.10;99.90;;;;;;5068252;28;20129;-77
2022/12/10 12:57:32;;;;;;;85.82;36.88;;;0.00;99.90;;;;;;5083292;28;20565;-77
2022/12/10 13:00:04;;;;;;;85.72;37.67;;;0.00;99.90;;;;;;5085634;28;20454;-78